createdAt,value
2018-07-30T00:01:22.445Z,4.30
2018-07-30T00:03:51.615Z,4.37
2018-07-30T00:06:20.743Z,3.80
2018-07-30T00:08:49.893Z,4.27
2018-07-30T00:11:19.025Z,4.13
2018-07-30T00:13:48.126Z,4.23
2018-07-30T00:16:17.363Z,4.10
2018-07-30T00:18:46.477Z,3.90
2018-07-30T00:21:15.619Z,4.00
2018-07-30T00:23:44.733Z,4.20
2018-07-30T00:26:13.884Z,3.60
2018-07-30T00:28:43.027Z,3.73
2018-07-30T00:31:12.157Z,4.07
2018-07-30T00:33:41.253Z,3.97
2018-07-30T00:36:10.355Z,3.80
2018-07-30T00:38:39.538Z,3.90
2018-07-30T00:41:08.661Z,3.83
2018-07-30T00:43:37.790Z,3.97
2018-07-30T00:46:07.029Z,4.33
2018-07-30T00:48:36.181Z,3.60
2018-07-30T00:51:05.308Z,3.80
2018-07-30T00:53:34.471Z,3.80
2018-07-30T00:56:03.638Z,3.73
2018-07-30T00:58:32.794Z,4.03
2018-07-30T01:01:01.923Z,3.63
2018-07-30T01:03:31.510Z,4.03
2018-07-30T01:06:00.631Z,4.47
2018-07-30T01:08:29.790Z,4.13
2018-07-30T01:10:58.897Z,4.13
2018-07-30T01:13:28.014Z,4.17
2018-07-30T01:15:57.153Z,4.10
2018-07-30T01:18:26.281Z,4.13
2018-07-30T01:20:55.838Z,4.37
2018-07-30T01:23:24.986Z,3.80
2018-07-30T01:25:54.123Z,4.30
2018-07-30T01:28:23.253Z,4.20
2018-07-30T01:30:52.361Z,4.30
2018-07-30T01:33:21.497Z,4.20
2018-07-30T01:35:50.666Z,4.30
2018-07-30T01:38:19.782Z,4.30
2018-07-30T01:40:48.986Z,4.20
2018-07-30T01:43:18.109Z,4.43
2018-07-30T01:45:47.217Z,4.10
2018-07-30T01:48:16.345Z,4.27
2018-07-30T01:50:45.475Z,4.10
2018-07-30T01:53:14.746Z,4.50
2018-07-30T01:55:43.838Z,4.37
2018-07-30T01:58:12.957Z,4.27
2018-07-30T02:00:42.085Z,4.37
2018-07-30T02:03:11.218Z,4.20
2018-07-30T02:05:40.325Z,4.00
2018-07-30T02:08:09.466Z,4.30
2018-07-30T02:10:38.569Z,4.13
2018-07-30T02:13:07.702Z,3.90
2018-07-30T02:15:36.827Z,4.17
2018-07-30T02:18:06.195Z,4.03
2018-07-30T02:20:35.397Z,3.80
2018-07-30T02:23:04.524Z,4.30
2018-07-30T02:25:33.642Z,3.67
2018-07-30T02:28:02.802Z,3.93
2018-07-30T02:30:32.536Z,4.10
2018-07-30T02:33:01.640Z,4.20
2018-07-30T02:35:30.814Z,3.83
2018-07-30T02:37:59.977Z,4.10
2018-07-30T02:40:29.091Z,4.40
2018-07-30T02:42:58.247Z,4.00
2018-07-30T02:45:27.396Z,4.53
2018-07-30T02:47:56.530Z,4.17
2018-07-30T02:50:25.694Z,4.10
2018-07-30T02:52:54.811Z,4.10
2018-07-30T02:55:23.934Z,3.53
2018-07-30T02:57:53.047Z,4.10
2018-07-30T03:00:22.211Z,4.50
2018-07-30T03:02:51.342Z,3.63
2018-07-30T03:05:20.514Z,4.57
2018-07-30T03:07:49.807Z,4.10
2018-07-30T03:10:18.924Z,4.00
2018-07-30T03:12:48.073Z,4.10
2018-07-30T03:15:17.219Z,3.77
2018-07-30T03:17:46.331Z,4.03
2018-07-30T03:20:15.482Z,4.43
2018-07-30T03:22:44.593Z,3.77
2018-07-30T03:25:13.740Z,4.47
2018-07-30T03:27:42.860Z,3.83
2018-07-30T03:30:12.042Z,4.00
2018-07-30T03:32:41.162Z,3.80
2018-07-30T03:35:10.329Z,4.37
2018-07-30T03:37:39.465Z,4.37
2018-07-30T03:40:08.689Z,4.10
2018-07-30T03:42:37.940Z,4.27
2018-07-30T03:45:07.877Z,4.37
2018-07-30T03:47:36.986Z,4.53
2018-07-30T03:50:06.566Z,4.33
2018-07-30T03:52:35.758Z,6.33
2018-07-30T03:55:05.265Z,4.77
2018-07-30T03:57:34.407Z,4.00
2018-07-30T04:00:03.760Z,4.47
2018-07-30T04:02:32.829Z,4.13
2018-07-30T04:05:01.966Z,4.00
2018-07-30T04:07:31.096Z,4.30
2018-07-30T04:10:00.241Z,4.73
2018-07-30T04:12:29.395Z,4.17
2018-07-30T04:14:58.491Z,4.33
2018-07-30T04:17:27.609Z,4.50
2018-07-30T04:19:56.729Z,4.70
2018-07-30T04:22:25.850Z,4.70
2018-07-30T04:24:55.067Z,4.40
2018-07-30T04:27:24.229Z,4.70
2018-07-30T04:29:53.366Z,4.57
2018-07-30T04:32:22.521Z,4.63
2018-07-30T04:34:52.286Z,4.27
2018-07-30T04:37:21.414Z,4.20
2018-07-30T04:39:50.545Z,4.40
2018-07-30T04:42:19.697Z,4.50
2018-07-30T04:44:48.861Z,4.50
2018-07-30T04:47:17.990Z,4.57
2018-07-30T04:49:47.125Z,4.17
2018-07-30T04:52:16.270Z,4.93
2018-07-30T04:54:45.413Z,4.13
2018-07-30T04:57:14.586Z,4.57
2018-07-30T04:59:43.678Z,4.33
2018-07-30T05:02:12.900Z,4.30
2018-07-30T05:04:42.021Z,4.00
2018-07-30T05:07:11.147Z,4.57
2018-07-30T05:12:54.522Z,4.20
2018-07-30T05:15:22.673Z,4.10
2018-07-30T05:17:51.694Z,4.40
2018-07-30T05:20:20.881Z,4.33
2018-07-30T05:22:50.017Z,4.80
2018-07-30T05:25:19.134Z,4.20
2018-07-30T05:27:48.273Z,4.83
2018-07-30T05:30:17.409Z,4.47
2018-07-30T05:32:46.537Z,5.10
2018-07-30T05:35:15.630Z,4.60
2018-07-30T05:37:44.773Z,4.50
2018-07-30T05:40:13.916Z,4.90
2018-07-30T05:42:43.067Z,4.60
2018-07-30T05:45:12.162Z,4.57
2018-07-30T05:47:41.306Z,4.40
2018-07-30T05:50:10.423Z,4.93
2018-07-30T05:52:39.553Z,4.63
2018-07-30T05:55:08.758Z,4.60
2018-07-30T05:57:37.876Z,4.47
2018-07-30T06:00:07.278Z,4.60
2018-07-30T06:02:36.403Z,4.57
2018-07-30T06:05:06.467Z,4.43
2018-07-30T06:07:35.599Z,4.50
2018-07-30T06:10:05.459Z,4.50
2018-07-30T06:12:34.603Z,4.43
2018-07-30T06:15:03.778Z,4.67
2018-07-30T06:17:32.876Z,4.47
2018-07-30T06:20:01.989Z,4.60
2018-07-30T06:22:31.099Z,4.53
2018-07-30T06:25:00.221Z,4.50
2018-07-30T06:27:29.396Z,4.47
2018-07-30T06:29:58.469Z,4.93
2018-07-30T06:32:27.585Z,4.10
2018-07-30T06:34:56.924Z,4.40
2018-07-30T06:37:26.115Z,4.40
2018-07-30T06:39:55.304Z,4.33
2018-07-30T06:42:24.450Z,4.10
2018-07-30T06:44:53.644Z,4.63
2018-07-30T06:47:22.773Z,4.50
2018-07-30T06:49:51.873Z,4.00
2018-07-30T06:52:21.070Z,4.60
2018-07-30T06:54:50.208Z,4.13
2018-07-30T06:57:19.340Z,4.27
2018-07-30T06:59:48.446Z,4.10
2018-07-30T07:02:17.598Z,4.47
2018-07-30T07:04:46.702Z,4.50
2018-07-30T07:07:15.818Z,4.20
2018-07-30T07:09:44.913Z,4.03
2018-07-30T07:12:14.045Z,4.70
2018-07-30T07:14:43.173Z,4.00
2018-07-30T07:17:12.298Z,4.30
2018-07-30T07:19:41.419Z,4.13
2018-07-30T07:22:10.526Z,4.30
2018-07-30T07:24:39.692Z,4.37
2018-07-30T07:27:08.865Z,4.07
2018-07-30T07:29:37.950Z,4.17
2018-07-30T07:32:07.248Z,3.90
2018-07-30T07:34:36.413Z,3.90
2018-07-30T07:37:05.616Z,3.90
2018-07-30T07:39:34.752Z,4.07
2018-07-30T07:42:03.899Z,3.93
2018-07-30T07:44:33.010Z,3.93
2018-07-30T07:47:02.161Z,3.77
2018-07-30T07:49:31.380Z,4.40
2018-07-30T07:52:00.482Z,4.20
2018-07-30T07:54:29.629Z,4.00
2018-07-30T07:56:58.741Z,4.23
2018-07-30T07:59:27.909Z,3.70
2018-07-30T08:01:57.059Z,4.00
2018-07-30T08:04:26.167Z,4.00
2018-07-30T08:06:55.293Z,3.67
2018-07-30T08:09:24.413Z,4.43
2018-07-30T08:11:53.549Z,4.13
2018-07-30T08:14:23.619Z,4.10
2018-07-30T08:16:52.729Z,4.07
2018-07-30T08:19:21.874Z,4.10
2018-07-30T08:21:51.010Z,4.13
2018-07-30T08:24:20.181Z,4.23
2018-07-30T08:26:49.331Z,3.83
2018-07-30T08:29:18.501Z,4.50
2018-07-30T08:31:47.763Z,4.03
2018-07-30T08:34:16.889Z,3.80
2018-07-30T08:36:46.166Z,4.50
2018-07-30T08:39:15.324Z,4.20
2018-07-30T08:41:44.437Z,4.13
2018-07-30T08:44:13.578Z,3.90
2018-07-30T08:46:42.721Z,4.03
2018-07-30T08:49:11.857Z,4.00
2018-07-30T08:51:40.981Z,4.20
2018-07-30T08:54:10.147Z,3.80
2018-07-30T08:56:39.326Z,4.07
2018-07-30T08:59:08.434Z,4.00
2018-07-30T09:01:37.570Z,3.93
2018-07-30T09:04:06.756Z,3.83
2018-07-30T09:06:35.890Z,4.10
2018-07-30T09:09:07.909Z,4.20
2018-07-30T09:11:37.411Z,3.87
2018-07-30T09:14:06.793Z,3.80
2018-07-30T09:16:35.993Z,4.10
2018-07-30T09:19:05.593Z,3.97
2018-07-30T09:21:34.770Z,4.10
2018-07-30T09:24:03.990Z,4.00
2018-07-30T09:26:33.153Z,3.73
2018-07-30T09:29:02.334Z,3.93
2018-07-30T09:31:32.295Z,3.80
2018-07-30T09:34:01.490Z,4.27
2018-07-30T09:36:30.628Z,4.20
2018-07-30T09:38:59.757Z,4.07
2018-07-30T09:41:28.912Z,4.30
2018-07-30T09:43:58.042Z,3.90
2018-07-30T09:46:27.163Z,4.27
2018-07-30T09:48:56.294Z,3.93
2018-07-30T09:51:25.442Z,4.03
2018-07-30T09:53:54.623Z,4.30
2018-07-30T09:56:23.759Z,4.10
2018-07-30T09:58:52.913Z,4.43
2018-07-30T10:01:28.626Z,4.40
2018-07-30T10:03:58.977Z,4.00
2018-07-30T10:06:28.110Z,4.10
2018-07-30T10:08:57.301Z,4.20
2018-07-30T10:11:26.549Z,4.23
2018-07-30T10:13:55.649Z,4.30
2018-07-30T10:16:24.767Z,4.40
2018-07-30T10:18:53.933Z,4.00
2018-07-30T10:21:29.157Z,4.30
2018-07-30T10:23:58.299Z,4.00
2018-07-30T10:26:27.441Z,3.93
2018-07-30T10:28:56.640Z,4.10
2018-07-30T10:31:25.779Z,4.10
2018-07-30T10:33:54.927Z,4.40
2018-07-30T10:36:24.137Z,4.37
2018-07-30T10:38:53.344Z,4.20
2018-07-30T10:41:22.547Z,4.10
2018-07-30T10:43:51.726Z,4.07
2018-07-30T10:46:20.949Z,4.10
2018-07-30T10:48:50.041Z,4.63
2018-07-30T10:51:19.145Z,4.57
2018-07-30T10:53:48.316Z,4.27
2018-07-30T10:56:17.397Z,4.30
2018-07-30T10:58:46.512Z,4.57
2018-07-30T11:01:15.667Z,4.00
2018-07-30T11:03:44.784Z,4.53
2018-07-30T11:06:14.066Z,4.30
2018-07-30T11:08:43.202Z,4.60
2018-07-30T11:11:12.326Z,4.00
2018-07-30T11:13:58.253Z,4.17
2018-07-30T11:16:27.369Z,4.23
2018-07-30T11:18:56.481Z,4.63
2018-07-30T11:21:25.663Z,4.47
2018-07-30T11:23:54.784Z,4.23
2018-07-30T11:26:23.886Z,3.90
2018-07-30T11:28:53.090Z,4.10
2018-07-30T11:31:22.234Z,4.80
2018-07-30T11:33:51.369Z,4.40
2018-07-30T11:36:20.501Z,3.80
2018-07-30T11:38:49.626Z,4.40
2018-07-30T11:41:18.742Z,4.37
2018-07-30T11:43:48.878Z,4.90
2018-07-30T11:46:17.998Z,4.17
2018-07-30T11:48:47.195Z,4.03
2018-07-30T11:51:16.262Z,4.30
2018-07-30T11:53:45.411Z,4.07
2018-07-30T11:56:14.560Z,4.30
2018-07-30T11:58:43.673Z,4.40
2018-07-30T12:01:12.832Z,4.13
2018-07-30T12:03:41.981Z,4.10
2018-07-30T12:06:11.146Z,4.50
2018-07-30T12:08:40.291Z,4.23
2018-07-30T12:11:09.456Z,4.40
2018-07-30T12:13:38.712Z,4.10
2018-07-30T12:16:07.821Z,3.87
2018-07-30T12:18:37.035Z,4.13
2018-07-30T12:21:06.197Z,4.60
2018-07-30T12:23:35.669Z,4.33
2018-07-30T12:26:04.833Z,4.30
2018-07-30T12:28:33.948Z,4.50
2018-07-30T12:31:03.121Z,4.27
2018-07-30T12:33:32.284Z,4.30
2018-07-30T12:36:01.465Z,4.20
2018-07-30T12:38:30.610Z,4.10
2018-07-30T12:40:59.717Z,4.60
2018-07-30T12:43:28.878Z,4.20
2018-07-30T12:45:58.015Z,4.53
2018-07-30T12:48:27.171Z,4.30
2018-07-30T12:50:56.425Z,4.40
2018-07-30T12:53:25.553Z,4.13
2018-07-30T12:55:54.696Z,4.00
2018-07-30T12:58:23.831Z,4.27
2018-07-30T13:00:54.029Z,4.00
2018-07-30T13:03:23.199Z,3.87
2018-07-30T13:05:52.376Z,4.00
2018-07-30T13:08:21.567Z,4.17
2018-07-30T13:10:50.682Z,4.00
2018-07-30T13:13:19.829Z,4.10
2018-07-30T13:15:48.973Z,3.83
2018-07-30T13:18:18.161Z,4.40
2018-07-30T13:20:47.344Z,3.97
2018-07-30T13:23:16.480Z,4.30
2018-07-30T13:25:45.662Z,3.87
2018-07-30T13:28:14.778Z,4.60
2018-07-30T13:30:44.055Z,4.33
2018-07-30T13:33:13.185Z,4.43
2018-07-30T13:35:42.309Z,4.10
2018-07-30T13:38:11.446Z,3.97
2018-07-30T13:40:40.646Z,4.20
2018-07-30T13:43:09.817Z,4.30
2018-07-30T13:45:39.786Z,4.00
2018-07-30T13:48:08.940Z,4.00
2018-07-30T13:50:38.095Z,4.33
2018-07-30T13:53:07.306Z,4.23
2018-07-30T13:55:36.651Z,4.53
2018-07-30T13:58:05.925Z,4.20
2018-07-30T14:00:35.178Z,4.10
2018-07-30T14:03:04.363Z,4.10
2018-07-30T14:05:33.521Z,4.63
2018-07-30T14:08:02.667Z,4.30
2018-07-30T14:10:31.786Z,4.00
2018-07-30T14:13:02.018Z,4.50
2018-07-30T14:15:31.201Z,4.63
2018-07-30T14:18:00.347Z,4.10
2018-07-30T14:20:29.475Z,4.10
2018-07-30T14:22:58.639Z,4.60
2018-07-30T14:25:27.870Z,4.40
2018-07-30T14:27:57.045Z,4.60
2018-07-30T14:30:26.169Z,4.27
2018-07-30T14:32:55.329Z,4.40
2018-07-30T14:35:24.504Z,4.60
2018-07-30T14:37:53.642Z,4.23
2018-07-30T14:40:22.844Z,4.57
2018-07-30T14:42:51.978Z,4.60
2018-07-30T14:45:21.157Z,4.33
2018-07-30T14:47:50.340Z,4.40
2018-07-30T14:50:19.458Z,4.40
2018-07-30T14:52:48.670Z,4.43
2018-07-30T14:55:17.797Z,4.60
2018-07-30T14:57:46.921Z,4.47
2018-07-30T15:00:16.116Z,4.23
2018-07-30T15:02:45.253Z,4.43
2018-07-30T15:05:18.546Z,4.00
2018-07-30T15:07:47.741Z,4.23
2018-07-30T15:10:16.901Z,4.10
2018-07-30T15:12:46.112Z,4.10
2018-07-30T15:15:15.291Z,4.20
2018-07-30T15:17:44.438Z,4.60
2018-07-30T15:20:13.565Z,4.47
2018-07-30T15:22:42.685Z,4.40
2018-07-30T15:25:11.922Z,4.30
2018-07-30T15:27:41.049Z,4.33
2018-07-30T15:30:10.202Z,4.30
2018-07-30T15:32:39.310Z,4.50
2018-07-30T15:35:08.488Z,4.40
2018-07-30T15:37:37.785Z,3.90
2018-07-30T15:40:07.270Z,4.43
2018-07-30T15:42:36.438Z,4.23
2018-07-30T15:45:05.806Z,4.30
2018-07-30T15:47:34.994Z,4.50
2018-07-30T15:50:04.274Z,4.00
2018-07-30T15:52:38.018Z,4.50
2018-07-30T15:55:07.315Z,4.27
2018-07-30T15:57:36.478Z,4.23
2018-07-30T16:00:06.962Z,4.30
2018-07-30T16:02:36.209Z,4.27
2018-07-30T16:05:05.531Z,4.07
2018-07-30T16:07:34.726Z,4.20
2018-07-30T16:10:04.158Z,4.10
2018-07-30T16:12:33.326Z,4.10
2018-07-30T16:15:02.442Z,4.10
2018-07-30T16:17:31.652Z,3.97
2018-07-30T16:20:00.785Z,3.77
2018-07-30T16:22:29.902Z,4.33
2018-07-30T16:24:59.065Z,4.40
2018-07-30T16:27:28.204Z,4.10
2018-07-30T16:29:57.393Z,4.57
2018-07-30T16:32:27.219Z,4.50
2018-07-30T16:34:56.413Z,4.27
2018-07-30T16:37:25.558Z,4.63
2018-07-30T16:39:54.746Z,4.37
2018-07-30T16:42:23.888Z,4.47
2018-07-30T16:44:53.027Z,4.47
2018-07-30T16:47:22.220Z,4.23
2018-07-30T16:49:51.538Z,4.40
2018-07-30T16:52:20.813Z,4.27
2018-07-30T16:54:50.021Z,4.20
2018-07-30T16:57:19.406Z,4.40
2018-07-30T16:59:48.709Z,4.33
2018-07-30T17:02:21.490Z,4.67
2018-07-30T17:04:50.751Z,4.60
2018-07-30T17:07:20.807Z,4.37
2018-07-30T17:09:50.013Z,4.07
2018-07-30T17:12:20.729Z,4.37
2018-07-30T17:14:50.873Z,4.53
2018-07-30T17:17:34.070Z,4.33
2018-07-30T17:20:08.771Z,4.30
2018-07-30T17:22:38.022Z,4.30
2018-07-30T17:25:07.211Z,4.00
2018-07-30T17:27:36.394Z,3.80
2018-07-30T17:30:05.895Z,3.90
2018-07-30T17:32:36.094Z,4.37
2018-07-30T17:35:05.488Z,4.23
2018-07-30T17:37:34.809Z,4.47
2018-07-30T17:40:04.869Z,3.80
2018-07-30T17:42:34.040Z,4.40
2018-07-30T17:45:03.234Z,4.47
2018-07-30T17:47:33.279Z,4.27
2018-07-30T17:50:02.434Z,4.80
2018-07-30T17:52:31.548Z,4.50
2018-07-30T17:55:00.712Z,4.20
2018-07-30T17:57:29.861Z,4.40
2018-07-30T17:59:59.361Z,4.70
2018-07-30T18:02:31.833Z,4.40
2018-07-30T18:05:01.032Z,4.40
2018-07-30T18:07:30.165Z,3.80
2018-07-30T18:09:59.393Z,4.40
2018-07-30T18:12:28.561Z,4.37
2018-07-30T18:15:02.294Z,4.67
2018-07-30T18:17:31.442Z,4.30
2018-07-30T18:20:06.834Z,4.43
2018-07-30T18:22:36.006Z,4.23
2018-07-30T18:25:15.994Z,4.70
2018-07-30T18:27:45.265Z,4.27
2018-07-30T18:30:14.530Z,4.43
2018-07-30T18:32:44.332Z,4.67
2018-07-30T18:35:13.530Z,4.30
2018-07-30T18:37:42.696Z,5.10
2018-07-30T18:40:11.892Z,4.47
2018-07-30T18:42:41.022Z,4.30
2018-07-30T18:45:12.250Z,4.10
2018-07-30T18:47:45.215Z,4.67
2018-07-30T18:50:14.472Z,4.23
2018-07-30T18:52:48.115Z,4.43
2018-07-30T18:55:18.262Z,4.70
2018-07-30T18:57:47.877Z,4.50
2018-07-30T19:00:17.269Z,4.20
2018-07-30T19:02:46.594Z,4.50
2018-07-30T19:05:16.000Z,4.30
2018-07-30T19:07:45.287Z,4.50
2018-07-30T19:10:14.602Z,4.53
2018-07-30T19:12:43.780Z,4.53
2018-07-30T19:15:12.914Z,4.90
2018-07-30T19:17:43.381Z,4.67
2018-07-30T19:20:12.713Z,4.70
2018-07-30T19:22:44.533Z,4.87
2018-07-30T19:25:17.813Z,4.40
2018-07-30T19:27:47.767Z,4.50
2018-07-30T19:30:17.169Z,5.10
2018-07-30T19:32:46.607Z,5.23
2018-07-30T19:35:15.858Z,5.00
2018-07-30T19:37:45.053Z,4.30
2018-07-30T19:40:14.227Z,4.70
2018-07-30T19:42:43.424Z,4.60
2018-07-30T19:45:12.557Z,4.80
2018-07-30T19:47:41.693Z,4.97
2018-07-30T19:50:11.422Z,4.67
2018-07-30T19:52:40.709Z,4.63
2018-07-30T19:55:09.828Z,5.03
2018-07-30T19:57:39.099Z,5.37
2018-07-30T20:00:08.755Z,4.40
2018-07-30T20:02:38.472Z,4.53
2018-07-30T20:05:08.413Z,4.90
2018-07-30T20:07:37.601Z,4.87
2018-07-30T20:10:06.897Z,5.30
2018-07-30T20:12:36.094Z,5.10
2018-07-30T20:15:05.749Z,5.03
2018-07-30T20:17:43.875Z,5.53
2018-07-30T20:20:18.123Z,5.20
2018-07-30T20:22:49.606Z,5.60
2018-07-30T20:25:18.997Z,6.00
2018-07-30T20:27:48.501Z,5.60
2018-07-30T20:30:18.209Z,5.87
2018-07-30T20:32:47.400Z,5.70
2018-07-30T20:35:16.729Z,5.50
2018-07-30T20:37:46.288Z,5.37
2018-07-30T20:40:15.468Z,5.83
2018-07-30T20:42:44.712Z,5.40
2018-07-30T20:45:14.009Z,5.43
2018-07-30T20:47:43.108Z,5.90
2018-07-30T20:50:12.589Z,5.40
2018-07-30T20:52:41.676Z,6.20
2018-07-30T20:55:10.833Z,5.80
2018-07-30T20:57:40.041Z,6.60
2018-07-30T21:00:09.201Z,6.07
2018-07-30T21:02:38.328Z,6.50
2018-07-30T21:05:07.429Z,6.30
2018-07-30T21:07:36.580Z,6.43
2018-07-30T21:10:06.009Z,6.00
2018-07-30T21:12:35.133Z,6.53
2018-07-30T21:15:04.757Z,6.60
2018-07-30T21:17:33.925Z,6.73
2018-07-30T21:20:03.485Z,6.23
2018-07-30T21:22:32.621Z,6.90
2018-07-30T21:25:01.741Z,6.70
2018-07-30T21:27:30.846Z,6.50
2018-07-30T21:29:59.929Z,6.90
2018-07-30T21:32:29.037Z,6.80
2018-07-30T21:34:58.118Z,6.60
2018-07-30T21:37:27.247Z,6.53
2018-07-30T21:39:56.346Z,6.83
2018-07-30T21:42:25.457Z,6.83
2018-07-30T21:44:54.590Z,6.40
2018-07-30T21:47:23.729Z,6.70
2018-07-30T21:49:52.777Z,6.30
2018-07-30T21:52:22.049Z,5.90
2018-07-30T21:54:51.229Z,5.40
2018-07-30T21:57:20.425Z,5.80
2018-07-30T21:59:49.633Z,5.53
2018-07-30T22:02:18.749Z,5.67
2018-07-30T22:04:47.884Z,5.40
2018-07-30T22:07:16.987Z,5.63
2018-07-30T22:09:46.154Z,5.10
2018-07-30T22:12:15.289Z,4.97
2018-07-30T22:14:44.390Z,5.10
2018-07-30T22:17:13.500Z,5.20
2018-07-30T22:19:42.669Z,4.90
2018-07-30T22:22:11.769Z,5.57
2018-07-30T22:24:40.897Z,5.03
2018-07-30T22:27:10.041Z,4.80
2018-07-30T22:29:39.124Z,4.80
2018-07-30T22:32:08.275Z,4.90
2018-07-30T22:34:37.381Z,4.87
2018-07-30T22:37:06.473Z,5.37
2018-07-30T22:39:35.573Z,4.93
2018-07-30T22:42:04.674Z,4.80
2018-07-30T22:44:33.757Z,5.20
2018-07-30T22:47:02.880Z,4.40
2018-07-30T22:49:31.988Z,4.50
2018-07-30T22:52:01.116Z,4.87
2018-07-30T22:54:30.317Z,4.90
2018-07-30T22:56:59.444Z,4.70
2018-07-30T22:59:28.584Z,4.97
2018-07-30T23:01:57.690Z,4.83
2018-07-30T23:04:26.777Z,4.90
2018-07-30T23:06:55.873Z,4.60
2018-07-30T23:09:24.987Z,4.60
2018-07-30T23:11:54.096Z,5.00
2018-07-30T23:14:23.202Z,4.70
2018-07-30T23:16:52.289Z,4.93
2018-07-30T23:19:21.400Z,4.43
2018-07-30T23:21:50.544Z,5.10
2018-07-30T23:24:19.641Z,4.97
2018-07-30T23:26:48.769Z,5.43
2018-07-30T23:29:17.891Z,5.80
2018-07-30T23:31:46.978Z,5.40
2018-07-30T23:34:16.121Z,5.23
2018-07-30T23:36:45.260Z,5.33
2018-07-30T23:39:14.329Z,5.20
2018-07-30T23:41:43.419Z,5.30
2018-07-30T23:44:12.575Z,5.30
2018-07-30T23:46:41.596Z,5.33
2018-07-30T23:49:10.672Z,5.23
2018-07-30T23:51:39.785Z,5.20
2018-07-30T23:54:08.869Z,5.30
2018-07-30T23:56:37.944Z,5.37
2018-07-30T23:59:07.037Z,4.83
